Time;durP1;ratioP1;P1;durP2;ratioP2;P2;SDS_P1;SDS_P2;PMS_P1;PMS_P2;Temp;Humidity;BMP_temperature;BMP_pressure;BME280_temperature;BME280_humidity;BME280_pressure;Samples;Min_cycle;Max_cycle;Signal;HPM_P1;HPM_P2
2022/09/08 00:00:40;;;;;;;21.38;17.48;;;18.50;99.90;;;;;;3060241;19;20037;-77
2022/09/08 00:01:44;;;;;;;20.92;17.27;;;17.40;99.90;;;;;;3060809;19;20078;-77
2022/09/08 00:02:45;;;;;;;22.67;17.85;;;17.30;99.90;;;;;;3059879;19;20003;-77
2022/09/08 00:03:50;;;;;;;24.85;17.58;;;17.40;99.90;;;;;;3059728;19;20006;-78
2022/09/08 00:04:51;;;;;;;21.90;17.85;;;17.40;99.90;;;;;;3059323;19;20483;-77
2022/09/08 00:06:02;;;;;;;24.73;18.42;;;17.30;99.90;;;;;;3059869;19;20027;-77
2022/09/08 00:07:06;;;;;;;23.90;18.42;;;17.40;99.90;;;;;;3059615;19;20018;-78
2022/09/08 00:08:11;;;;;;;22.30;18.17;;;17.40;99.90;;;;;;3061181;19;20031;-78
2022/09/08 00:09:12;;;;;;;24.25;17.90;;;17.30;99.90;;;;;;3061430;19;20483;-78
2022/09/08 00:10:17;;;;;;;24.63;18.35;;;17.40;99.90;;;;;;3060091;19;20353;-78
2022/09/08 00:11:24;;;;;;;23.13;17.27;;;17.50;99.90;;;;;;3061391;19;20505;-78
2022/09/08 00:12:25;;;;;;;25.83;19.15;;;17.40;99.90;;;;;;3060549;19;20010;-78
2022/09/08 00:13:32;;;;;;;23.30;18.45;;;17.40;99.90;;;;;;3060219;19;20033;-79
2022/09/08 00:14:39;;;;;;;23.17;18.38;;;17.20;99.90;;;;;;3059574;19;20014;-78
2022/09/08 00:15:41;;;;;;;24.98;18.73;;;17.30;99.90;;;;;;3059350;19;20003;-77
2022/09/08 00:16:45;;;;;;;26.00;19.42;;;17.40;99.90;;;;;;3059344;19;20014;-77
2022/09/08 00:17:47;;;;;;;24.98;19.38;;;17.30;99.90;;;;;;3058968;19;20388;-77
2022/09/08 00:18:52;;;;;;;26.00;20.17;;;17.20;99.90;;;;;;3059434;19;20025;-77
2022/09/08 00:19:53;;;;;;;35.05;21.45;;;17.40;99.90;;;;;;3059986;19;20019;-78
2022/09/08 00:20:57;;;;;;;27.95;20.95;;;17.30;99.90;;;;;;3059864;19;20022;-78
2022/09/08 00:21:58;;;;;;;27.02;20.25;;;17.20;99.90;;;;;;3060057;19;20477;-77
2022/09/08 00:23:02;;;;;;;29.77;21.42;;;17.80;99.90;;;;;;3059168;19;20357;-78
2022/09/08 00:24:04;;;;;;;27.27;20.48;;;17.20;99.90;;;;;;3059456;19;20495;-78
2022/09/08 00:25:08;;;;;;;;;;;17.20;99.90;;;;;;3059873;19;20010;-77
2022/09/08 00:26:12;;;;;;;26.00;20.77;;;17.30;99.90;;;;;;3061456;19;19911;-77
2022/09/08 00:27:14;;;;;;;29.85;20.52;;;17.30;99.90;;;;;;3058784;19;20014;-78
2022/09/08 00:28:18;;;;;;;26.65;20.88;;;17.20;99.90;;;;;;3060601;19;20021;-78
2022/09/08 00:29:20;;;;;;;30.55;21.38;;;17.20;99.90;;;;;;3059769;19;20014;-78
2022/09/08 00:30:27;;;;;;;29.02;21.85;;;17.40;99.90;;;;;;3059390;19;20022;-78
2022/09/08 00:31:28;;;;;;;26.95;21.50;;;17.30;99.90;;;;;;3058841;19;20029;-78
2022/09/08 00:32:32;;;;;;;29.65;21.75;;;17.20;99.90;;;;;;3058914;19;20030;-77
2022/09/08 00:33:33;;;;;;;29.23;21.58;;;17.20;99.90;;;;;;3058935;19;20482;-77
2022/09/08 00:34:37;;;;;;;28.88;22.30;;;17.30;99.90;;;;;;3059034;19;20010;-77
2022/09/08 00:35:42;;;;;;;28.58;21.88;;;17.10;99.90;;;;;;3058667;19;20010;-77
2022/09/08 00:36:46;;;;;;;28.55;22.30;;;17.30;99.90;;;;;;3058925;19;20003;-78
2022/09/08 00:37:47;;;;;;;27.80;21.75;;;17.30;99.90;;;;;;3058991;19;20002;-77
2022/09/08 00:38:57;;;;;;;29.10;22.83;;;17.30;99.90;;;;;;3058518;19;20011;-77
2022/09/08 00:39:58;;;;;;;29.63;22.42;;;17.10;99.90;;;;;;3058917;19;20679;-78
2022/09/08 00:41:09;;;;;;;28.65;21.98;;;17.30;99.90;;;;;;3059307;19;20440;-78
2022/09/08 00:42:10;;;;;;;28.88;22.00;;;17.20;99.90;;;;;;3060043;19;20441;-77
2022/09/08 00:43:32;;;;;;;30.92;22.63;;;17.10;99.90;;;;;;3059652;19;20018;-78
2022/09/08 00:44:39;;;;;;;28.30;21.33;;;17.30;99.90;;;;;;3060358;19;20466;-77
2022/09/08 00:45:48;;;;;;;29.70;22.65;;;17.20;99.90;;;;;;3058645;19;20498;-78
2022/09/08 00:46:50;;;;;;;29.90;23.00;;;17.10;99.90;;;;;;3058947;19;20010;-78
2022/09/08 00:48:00;;;;;;;30.38;23.58;;;17.10;99.90;;;;;;3060289;19;20091;-77
2022/09/08 00:49:08;;;;;;;27.80;22.05;;;17.40;99.90;;;;;;3058629;19;20414;-78
2022/09/08 00:50:17;;;;;;;30.80;22.75;;;17.10;99.90;;;;;;3058649;19;20025;-78
2022/09/08 00:51:18;;;;;;;30.33;23.23;;;17.30;99.90;;;;;;3059989;19;20028;-77
2022/09/08 00:52:23;;;;;;;32.88;24.05;;;17.10;99.90;;;;;;3058714;19;20062;-78
2022/09/08 00:53:25;;;;;;;36.00;25.00;;;17.10;99.90;;;;;;3059810;19;20014;-78
2022/09/08 00:54:30;;;;;;;30.33;23.15;;;17.10;99.90;;;;;;3059808;19;20022;-77
2022/09/08 00:55:34;;;;;;;30.58;23.60;;;17.00;99.90;;;;;;3058203;19;19999;-78
2022/09/08 00:56:38;;;;;;;31.17;23.55;;;17.20;99.90;;;;;;3059097;19;20344;-78
2022/09/08 00:57:40;;;;;;;34.72;24.73;;;17.20;99.90;;;;;;3058053;19;20506;-78
2022/09/08 00:58:44;;;;;;;31.90;23.77;;;17.00;99.90;;;;;;3060603;19;20010;-77
2022/09/08 00:59:48;;;;;;;32.97;25.00;;;17.20;99.90;;;;;;3059321;19;20022;-78
2022/09/08 01:00:55;;;;;;;30.95;23.60;;;17.30;99.90;;;;;;3058970;19;20014;-77
2022/09/08 01:01:57;;;;;;;32.58;24.92;;;17.20;99.90;;;;;;3058913;19;20431;-78
2022/09/08 01:03:01;;;;;;;31.90;25.13;;;17.30;99.90;;;;;;3058779;19;20074;-77
2022/09/08 01:04:05;;;;;;;32.05;24.45;;;17.30;99.90;;;;;;3058700;19;19998;-77
2022/09/08 01:05:11;;;;;;;32.80;24.45;;;17.30;99.90;;;;;;3058682;19;20467;-78
2022/09/08 01:12:43;;;;;;;32.78;24.80;;;17.10;99.90;;;;;;3058594;19;20013;-77
2022/09/08 01:13:29;;;;;;;34.00;25.02;;;17.00;99.90;;;;;;3060065;19;20018;-78
2022/09/08 01:14:47;;;;;;;36.08;25.88;;;17.10;99.90;;;;;;3058588;19;20014;-77
2022/09/08 01:15:55;;;;;;;32.55;23.98;;;16.90;99.90;;;;;;3058564;19;20003;-77
2022/09/08 01:16:56;;;;;;;36.03;25.30;;;16.90;99.90;;;;;;3059630;19;20010;-77
2022/09/08 01:18:00;;;;;;;32.67;24.98;;;17.00;99.90;;;;;;3058143;19;20055;-78
2022/09/08 01:19:01;;;;;;;30.98;25.05;;;17.00;99.90;;;;;;3059060;19;20018;-78
2022/09/08 01:20:09;;;;;;;31.65;25.27;;;16.90;99.90;;;;;;3058888;19;19999;-77
2022/09/08 01:21:26;;;;;;;34.78;25.63;;;17.10;99.90;;;;;;3058159;19;20468;-78
2022/09/08 01:22:50;;;;;;;34.65;25.60;;;17.20;99.90;;;;;;3058837;19;20002;-77
2022/09/08 01:24:20;;;;;;;35.58;26.02;;;17.00;99.90;;;;;;3058344;19;20019;-77
2022/09/08 01:25:36;;;;;;;33.50;25.30;;;17.00;99.90;;;;;;3057779;19;20037;-77
2022/09/08 01:27:21;;;;;;;32.28;25.05;;;16.90;99.90;;;;;;3059659;19;20471;-77
2022/09/08 01:28:30;;;;;;;33.65;24.48;;;16.80;99.90;;;;;;3057921;19;20015;-78
2022/09/08 01:29:37;;;;;;;33.85;25.42;;;16.80;99.90;;;;;;3058263;19;20006;-77
2022/09/08 01:30:38;;;;;;;34.45;25.75;;;17.10;99.90;;;;;;3059654;19;20041;-78
2022/09/08 01:31:44;;;;;;;36.10;26.42;;;17.00;99.90;;;;;;3058282;19;20352;-77
2022/09/08 01:32:49;;;;;;;34.33;25.83;;;16.80;99.90;;;;;;3058542;19;20010;-77
2022/09/08 01:33:51;;;;;;;36.13;26.50;;;17.10;99.90;;;;;;3059141;19;20367;-76
2022/09/08 01:34:55;;;;;;;37.08;25.75;;;17.00;99.90;;;;;;3058471;19;20010;-78
2022/09/08 01:35:56;;;;;;;35.22;26.30;;;16.90;99.90;;;;;;3057661;19;20014;-77
2022/09/08 01:37:02;;;;;;;34.65;26.85;;;17.00;99.90;;;;;;3058360;19;20015;-77
2022/09/08 01:38:03;;;;;;;35.72;27.00;;;16.80;99.90;;;;;;3059227;19;20040;-77
2022/09/08 01:39:07;;;;;;;34.50;25.88;;;17.10;99.90;;;;;;3059358;19;20022;-77
2022/09/08 01:40:09;;;;;;;37.90;27.23;;;17.00;99.90;;;;;;3058128;19;20479;-78
2022/09/08 01:41:13;;;;;;;33.95;26.00;;;17.00;99.90;;;;;;3058274;19;20010;-78
2022/09/08 01:42:15;;;;;;;33.83;25.85;;;17.10;99.90;;;;;;3057996;19;20017;-78
2022/09/08 01:43:19;;;;;;;36.55;27.45;;;16.90;99.90;;;;;;3058486;19;20014;-78
2022/09/08 01:44:23;;;;;;;35.67;27.13;;;16.90;99.90;;;;;;3058803;19;20040;-78
2022/09/08 01:45:27;;;;;;;36.33;26.75;;;16.90;99.90;;;;;;3058198;19;19998;-77
2022/09/08 01:46:30;;;;;;;33.13;25.75;;;17.00;99.90;;;;;;3057975;19;20002;-78
2022/09/08 01:47:34;;;;;;;37.55;26.80;;;17.00;99.90;;;;;;3058183;19;20371;-78
2022/09/08 01:48:36;;;;;;;35.65;27.13;;;16.60;99.90;;;;;;3059352;19;20015;-78
2022/09/08 01:49:40;;;;;;;;;;;17.00;99.90;;;;;;3060544;19;20365;-78
2022/09/08 01:50:41;;;;;;;35.17;25.67;;;17.00;99.90;;;;;;3058849;19;19930;-78
2022/09/08 01:51:45;;;;;;;34.58;25.88;;;16.90;99.90;;;;;;3058162;19;20010;-78
2022/09/08 01:52:47;;;;;;;34.80;25.95;;;16.90;99.90;;;;;;3058157;19;20023;-78
2022/09/08 01:53:50;;;;;;;;;;;16.90;99.90;;;;;;3058823;19;20408;-77
2022/09/08 01:54:52;;;;;;;35.50;25.95;;;16.90;99.90;;;;;;3059301;19;20335;-78
2022/09/08 01:55:55;;;;;;;37.25;26.08;;;16.90;99.90;;;;;;3057634;19;20006;-78
2022/09/08 01:57:00;;;;;;;37.00;26.20;;;16.80;99.90;;;;;;3058235;19;20481;-78
2022/09/08 01:58:07;;;;;;;38.08;27.17;;;16.80;99.90;;;;;;3058090;19;20037;-78
2022/09/08 01:59:12;;;;;;;36.78;27.27;;;16.70;99.90;;;;;;3058230;19;20476;-78
2022/09/08 02:00:23;;;;;;;35.97;27.95;;;16.80;99.90;;;;;;3058221;19;20018;-78
2022/09/08 02:01:29;;;;;;;35.40;26.13;;;16.70;99.90;;;;;;3058145;19;20018;-78
2022/09/08 02:02:41;;;;;;;36.95;27.40;;;16.80;99.90;;;;;;3057835;19;20022;-77
2022/09/08 02:03:45;;;;;;;36.97;27.00;;;16.70;99.90;;;;;;3058423;19;20483;-78
2022/09/08 02:04:54;;;;;;;38.58;27.42;;;16.80;99.90;;;;;;3059208;19;20355;-78
2022/09/08 02:06:09;;;;;;;;;;;;;;;;;;;;;
2022/09/08 02:07:14;;;;;;;39.45;27.63;;;16.70;99.90;;;;;;3057743;19;20033;-78
2022/09/08 02:08:23;;;;;;;36.70;27.20;;;16.90;99.90;;;;;;3058295;19;20014;-77
2022/09/08 02:09:27;;;;;;;40.08;29.15;;;16.70;99.90;;;;;;3057791;19;19998;-78
2022/09/08 02:10:28;;;;;;;39.17;28.20;;;16.70;99.90;;;;;;3058181;19;20019;-78
2022/09/08 02:11:32;;;;;;;38.97;28.20;;;16.80;99.90;;;;;;3057945;19;20479;-78
2022/09/08 02:12:34;;;;;;;38.63;27.65;;;16.70;99.90;;;;;;3058008;19;21042;-78
2022/09/08 02:13:38;;;;;;;;;;;16.70;99.90;;;;;;3058553;19;20043;-78
2022/09/08 02:14:39;;;;;;;38.78;27.35;;;16.90;99.90;;;;;;3058765;19;19919;-78
2022/09/08 02:15:45;;;;;;;40.90;27.85;;;16.70;99.90;;;;;;3059041;19;20028;-78
2022/09/08 02:16:52;;;;;;;38.97;27.75;;;16.60;99.90;;;;;;3057509;19;20014;-79
2022/09/08 02:17:53;;;;;;;41.05;29.70;;;16.80;99.90;;;;;;3057516;19;20022;-78
2022/09/08 02:18:58;;;;;;;38.65;27.88;;;16.50;99.90;;;;;;3057985;19;20014;-78
2022/09/08 02:19:59;;;;;;;37.78;27.33;;;16.70;99.90;;;;;;3058340;19;20028;-78
2022/09/08 02:21:08;;;;;;;38.25;28.13;;;16.80;99.90;;;;;;3059491;19;20022;-78
2022/09/08 02:22:10;;;;;;;38.83;28.10;;;16.80;99.90;;;;;;3058088;19;20010;-78
2022/09/08 02:23:14;;;;;;;40.65;29.25;;;16.60;99.90;;;;;;3058344;19;20014;-78
2022/09/08 02:24:18;;;;;;;38.53;28.42;;;16.80;99.90;;;;;;3057478;19;20032;-78
2022/09/08 02:25:20;;;;;;;37.67;27.95;;;16.90;99.90;;;;;;3057519;19;20011;-77
2022/09/08 02:26:26;;;;;;;36.47;27.40;;;16.80;99.90;;;;;;3058025;19;20003;-78
2022/09/08 02:27:27;;;;;;;38.28;28.27;;;16.60;99.90;;;;;;3057464;19;20019;-78
2022/09/08 02:28:31;;;;;;;39.00;28.40;;;16.60;99.90;;;;;;3059047;19;20514;-77
2022/09/08 02:29:33;;;;;;;38.47;28.83;;;16.70;99.90;;;;;;3057529;19;20010;-77
2022/09/08 02:30:38;;;;;;;38.20;28.60;;;16.80;99.90;;;;;;3058651;19;20478;-77
2022/09/08 02:31:42;;;;;;;40.10;28.95;;;16.70;99.90;;;;;;3057277;19;20035;-78
2022/09/08 02:32:46;;;;;;;38.28;28.88;;;16.60;99.90;;;;;;3057589;19;20007;-77
2022/09/08 02:33:47;;;;;;;42.25;28.80;;;16.90;99.90;;;;;;3057342;19;20014;-78
2022/09/08 02:34:52;;;;;;;39.13;29.05;;;17.00;99.90;;;;;;3057751;19;20498;-78
2022/09/08 02:35:53;;;;;;;40.85;28.70;;;16.90;99.90;;;;;;3058900;19;20029;-77
2022/09/08 02:36:57;;;;;;;39.88;28.38;;;16.80;99.90;;;;;;3060778;19;20014;-78
2022/09/08 02:37:58;;;;;;;41.50;29.88;;;17.60;99.90;;;;;;3059883;19;20022;-78
2022/09/08 02:39:02;;;;;;;41.90;28.63;;;16.70;99.90;;;;;;3060755;19;20484;-78
2022/09/08 02:40:06;;;;;;;39.80;29.10;;;16.90;99.90;;;;;;3061074;19;20066;-78
2022/09/08 02:41:10;;;;;;;42.75;29.45;;;16.70;99.90;;;;;;3060587;19;20499;-78
2022/09/08 02:42:11;;;;;;;39.97;28.45;;;16.80;99.90;;;;;;3061315;19;20035;-78
2022/09/08 02:43:15;;;;;;;42.10;28.83;;;16.80;99.90;;;;;;3060740;19;20470;-77
2022/09/08 02:44:16;;;;;;;44.50;29.92;;;16.80;99.90;;;;;;3060061;19;20003;-78
2022/09/08 02:45:20;;;;;;;41.78;29.92;;;16.70;99.90;;;;;;3060734;19;20029;-77
2022/09/08 02:46:22;;;;;;;39.60;29.60;;;16.90;99.90;;;;;;3061106;19;20024;-77
2022/09/08 02:47:28;;;;;;;41.72;29.65;;;16.90;99.90;;;;;;3060577;19;20019;-77
2022/09/08 02:48:30;;;;;;;40.58;28.88;;;16.80;99.90;;;;;;3060781;19;20015;-77
2022/09/08 02:49:34;;;;;;;40.35;29.35;;;16.80;99.90;;;;;;3060500;19;20034;-78
2022/09/08 02:50:36;;;;;;;41.63;30.05;;;17.00;99.90;;;;;;3060151;19;20479;-77
2022/09/08 02:51:40;;;;;;;44.85;30.45;;;17.70;99.90;;;;;;3060440;19;20074;-77
2022/09/08 02:52:41;;;;;;;43.97;30.10;;;17.00;99.90;;;;;;3060787;19;20017;-77
2022/09/08 02:53:45;;;;;;;40.13;28.92;;;17.00;99.90;;;;;;3060345;19;20360;-78
2022/09/08 02:54:46;;;;;;;41.97;29.52;;;17.00;99.90;;;;;;3060258;19;20013;-77
2022/09/08 02:55:50;;;;;;;42.65;30.40;;;16.80;99.90;;;;;;3060253;19;20463;-77
2022/09/08 02:56:52;;;;;;;41.83;30.42;;;16.90;99.90;;;;;;3060288;19;20010;-77
2022/09/08 02:57:56;;;;;;;40.15;28.70;;;16.90;99.90;;;;;;3060607;19;20450;-77
2022/09/08 02:58:58;;;;;;;41.05;30.15;;;16.90;99.90;;;;;;3060973;19;20421;-78
2022/09/08 03:00:02;;;;;;;40.08;29.25;;;17.00;99.90;;;;;;3060453;19;20021;-77
2022/09/08 03:01:04;;;;;;;39.53;28.67;;;17.00;99.90;;;;;;3060195;19;20033;-77
2022/09/08 03:02:08;;;;;;;42.70;30.02;;;16.90;99.90;;;;;;3060251;19;20006;-78
2022/09/08 03:03:12;;;;;;;43.70;30.98;;;16.90;99.90;;;;;;3059988;19;20515;-77
2022/09/08 03:04:16;;;;;;;42.03;29.95;;;17.00;99.90;;;;;;3060403;19;20010;-78
2022/09/08 03:05:18;;;;;;;44.40;30.58;;;16.90;99.90;;;;;;3059248;19;20011;-78
2022/09/08 03:06:22;;;;;;;41.20;29.45;;;17.00;99.90;;;;;;3059826;19;20085;-77
2022/09/08 03:07:23;;;;;;;41.80;30.05;;;16.90;99.90;;;;;;3060254;19;20014;-77
2022/09/08 03:08:27;;;;;;;45.40;31.35;;;16.90;99.90;;;;;;3060823;19;20037;-78
2022/09/08 03:09:29;;;;;;;42.33;29.92;;;17.10;99.90;;;;;;3061680;19;20019;-78
2022/09/08 03:10:33;;;;;;;41.92;31.20;;;17.20;99.90;;;;;;3060696;19;20017;-77
2022/09/08 03:11:35;;;;;;;42.25;30.60;;;16.80;99.90;;;;;;3058926;19;20285;-77
2022/09/08 03:12:39;;;;;;;42.47;30.92;;;17.00;99.90;;;;;;3059980;19;20486;-77
2022/09/08 03:13:40;;;;;;;46.65;31.83;;;16.90;99.90;;;;;;3059605;19;20018;-77
2022/09/08 03:14:44;;;;;;;44.60;32.00;;;17.20;99.90;;;;;;3062156;19;20014;-77
2022/09/08 03:15:46;;;;;;;43.38;31.23;;;17.00;99.90;;;;;;3060705;19;20014;-77
2022/09/08 03:16:50;;;;;;;45.47;31.67;;;16.90;99.90;;;;;;3060184;19;20033;-77
2022/09/08 03:17:52;;;;;;;47.45;31.75;;;16.80;99.90;;;;;;3059110;19;20049;-77
2022/09/08 03:18:58;;;;;;;43.95;31.58;;;16.90;99.90;;;;;;3060756;19;20011;-78
2022/09/08 03:20:00;;;;;;;46.53;31.85;;;17.10;99.90;;;;;;3059832;19;20026;-77
2022/09/08 03:21:06;;;;;;;45.88;32.35;;;17.10;99.90;;;;;;3060596;19;20019;-76
2022/09/08 03:22:07;;;;;;;45.78;32.30;;;16.80;99.90;;;;;;3059635;19;20041;-77
2022/09/08 03:23:19;;;;;;;45.53;32.63;;;16.90;99.90;;;;;;3059950;19;20336;-77
2022/09/08 03:24:20;;;;;;;47.92;33.67;;;16.90;99.90;;;;;;3059516;19;20014;-78
2022/09/08 03:25:24;;;;;;;42.53;31.60;;;17.00;99.90;;;;;;3061727;19;20362;-77
2022/09/08 03:26:25;;;;;;;45.00;31.98;;;17.00;99.90;;;;;;3059755;19;20015;-77
2022/09/08 03:27:29;;;;;;;44.30;31.35;;;17.20;99.90;;;;;;3059947;19;20031;-77
2022/09/08 03:28:31;;;;;;;47.72;32.72;;;17.10;99.90;;;;;;3059653;19;20031;-77
2022/09/08 03:29:35;;;;;;;46.40;31.98;;;16.80;99.90;;;;;;3060043;19;20014;-77
2022/09/08 03:30:38;;;;;;;49.40;33.80;;;17.10;99.90;;;;;;3059761;19;20003;-77
2022/09/08 03:34:47;;;;;;;47.35;32.22;;;17.20;99.90;;;;;;3056556;19;20015;-77
2022/09/08 03:36:30;;;;;;;46.25;30.60;;;17.00;99.90;;;;;;3057141;19;20018;-78
2022/09/08 03:38:06;;;;;;;44.92;31.17;;;17.00;99.90;;;;;;3058604;19;20014;-78
2022/09/08 03:39:39;;;;;;;44.15;30.45;;;17.10;99.90;;;;;;3061563;19;20019;-78
2022/09/08 03:41:19;;;;;;;46.72;31.27;;;17.00;99.90;;;;;;3058980;19;20025;-78
2022/09/08 03:43:04;;;;;;;;;;;;;;;;;;;;;
2022/09/08 03:44:16;;;;;;;44.45;31.20;;;16.90;99.90;;;;;;3058553;19;20074;-79
2022/09/08 03:45:49;;;;;;;;;;;;;;;;;;;;;
2022/09/08 03:47:24;;;;;;;46.53;31.25;;;16.90;99.90;;;;;;3058561;19;20018;-78
2022/09/08 03:48:55;;;;;;;46.53;31.95;;;16.90;99.90;;;;;;3060125;19;20507;-78
2022/09/08 03:50:23;;;;;;;45.35;30.95;;;16.80;99.90;;;;;;3061449;19;20026;-78
2022/09/08 03:51:26;;;;;;;47.28;32.63;;;16.80;99.90;;;;;;3059459;19;20035;-78
2022/09/08 03:52:30;;;;;;;49.72;33.72;;;16.90;99.90;;;;;;3060333;19;22204;-78
2022/09/08 03:53:31;;;;;;;48.40;32.63;;;16.80;99.90;;;;;;3059539;19;20011;-78
2022/09/08 03:54:50;;;;;;;45.80;32.78;;;17.10;99.90;;;;;;3059891;19;20086;-78
2022/09/08 03:55:52;;;;;;;47.88;32.35;;;16.90;99.90;;;;;;3059678;19;20002;-78
2022/09/08 03:56:56;;;;;;;50.35;34.10;;;17.00;99.90;;;;;;3059859;19;20026;-78
2022/09/08 03:57:57;;;;;;;49.05;32.90;;;17.00;99.90;;;;;;3059596;19;20010;-78
2022/09/08 03:59:01;;;;;;;48.80;32.65;;;16.90;99.90;;;;;;3056596;19;20035;-78
2022/09/08 04:00:05;;;;;;;49.50;33.88;;;17.00;99.90;;;;;;3061334;19;20517;-78
2022/09/08 04:01:11;;;;;;;50.03;34.50;;;16.90;99.90;;;;;;3060075;19;20014;-78
2022/09/08 04:02:13;;;;;;;50.03;34.13;;;16.80;99.90;;;;;;3059747;19;20463;-77
2022/09/08 04:03:17;;;;;;;50.80;34.42;;;16.80;99.90;;;;;;3059234;19;20007;-78
2022/09/08 04:04:19;;;;;;;48.50;33.58;;;17.10;99.90;;;;;;3058549;19;20519;-77
2022/09/08 04:05:26;;;;;;;46.58;32.35;;;17.00;99.90;;;;;;3058617;19;20014;-79
2022/09/08 04:06:29;;;;;;;49.30;33.28;;;16.80;99.90;;;;;;3059895;19;20010;-79
2022/09/08 04:07:34;;;;;;;49.08;33.53;;;17.00;99.90;;;;;;3059553;19;20041;-79
2022/09/08 04:08:35;;;;;;;52.20;34.78;;;17.00;99.90;;;;;;3059398;19;20006;-78
2022/09/08 04:09:40;;;;;;;50.05;33.85;;;18.10;99.90;;;;;;3059133;19;20014;-78
2022/09/08 04:10:42;;;;;;;50.75;34.47;;;17.10;99.90;;;;;;3059755;19;20010;-77
2022/09/08 04:11:47;;;;;;;47.03;33.92;;;16.90;99.90;;;;;;3059813;19;20029;-78
2022/09/08 04:12:49;;;;;;;49.60;33.55;;;17.00;99.90;;;;;;3059223;19;20015;-78
2022/09/08 04:13:53;;;;;;;47.97;34.05;;;17.00;99.90;;;;;;3058380;19;20506;-78
2022/09/08 04:14:55;;;;;;;49.70;34.22;;;16.80;99.90;;;;;;3059331;19;20479;-78
2022/09/08 04:15:59;;;;;;;54.55;34.67;;;16.90;99.90;;;;;;3059257;19;20393;-77
2022/09/08 04:17:00;;;;;;;50.30;34.22;;;17.80;99.90;;;;;;3059908;19;20023;-78
2022/09/08 04:18:04;;;;;;;47.85;33.70;;;17.00;99.90;;;;;;3059435;19;20003;-78
2022/09/08 04:19:06;;;;;;;49.63;34.63;;;16.90;99.90;;;;;;3060495;19;20006;-77
2022/09/08 04:20:11;;;;;;;50.25;33.55;;;16.90;99.90;;;;;;3059730;19;20045;-78
2022/09/08 04:21:15;;;;;;;48.42;33.83;;;17.00;99.90;;;;;;3060043;19;20019;-78
2022/09/08 04:22:20;;;;;;;47.92;33.65;;;17.00;99.90;;;;;;3060443;19;20039;-78
2022/09/08 04:23:21;;;;;;;54.90;35.20;;;17.00;99.90;;;;;;3061281;19;20022;-78
2022/09/08 04:24:25;;;;;;;51.67;34.83;;;17.00;99.90;;;;;;3060226;19;20015;-78
2022/09/08 04:25:26;;;;;;;49.60;33.55;;;17.00;99.90;;;;;;3060757;19;20336;-78
2022/09/08 04:26:31;;;;;;;49.72;34.20;;;17.00;99.90;;;;;;3059886;19;20006;-78
2022/09/08 04:27:32;;;;;;;51.05;33.47;;;17.00;99.90;;;;;;3060380;19;20073;-79
2022/09/08 04:28:36;;;;;;;51.30;34.55;;;16.90;99.90;;;;;;3059734;19;20011;-78
2022/09/08 04:29:39;;;;;;;49.58;35.35;;;16.90;99.90;;;;;;3061581;19;20015;-78
2022/09/08 04:30:43;;;;;;;49.55;33.95;;;16.90;99.90;;;;;;3060868;19;20029;-78
2022/09/08 04:31:44;;;;;;;53.47;36.85;;;16.90;99.90;;;;;;3059981;19;20014;-78
2022/09/08 04:32:49;;;;;;;51.97;35.55;;;17.10;99.90;;;;;;3059552;19;20010;-78
2022/09/08 04:33:51;;;;;;;54.65;36.20;;;16.90;99.90;;;;;;3059794;19;20011;-78
2022/09/08 04:34:54;;;;;;;49.53;34.47;;;17.50;99.90;;;;;;3061110;19;20019;-78
2022/09/08 04:35:56;;;;;;;53.20;36.05;;;17.00;99.90;;;;;;3059583;19;20014;-77
2022/09/08 04:37:02;;;;;;;56.78;36.92;;;16.90;99.90;;;;;;3058698;19;20507;-78
2022/09/08 04:38:03;;;;;;;55.13;37.13;;;16.90;99.90;;;;;;3059601;19;20014;-78
2022/09/08 04:39:07;;;;;;;52.53;36.25;;;17.00;99.90;;;;;;3059739;19;20502;-78
2022/09/08 04:40:13;;;;;;;52.33;36.47;;;17.00;99.90;;;;;;3059644;19;20010;-78
2022/09/08 04:41:16;;;;;;;54.83;36.30;;;16.90;99.90;;;;;;3059073;19;20018;-77
2022/09/08 04:42:21;;;;;;;51.85;35.40;;;16.80;99.90;;;;;;3059544;19;20463;-78
2022/09/08 04:43:22;;;;;;;53.47;36.50;;;17.00;99.90;;;;;;3059232;19;20006;-78
2022/09/08 04:44:26;;;;;;;52.63;36.47;;;17.10;99.90;;;;;;3059777;19;20021;-78
2022/09/08 04:45:28;;;;;;;51.17;34.75;;;17.10;99.90;;;;;;3059198;19;20032;-77
2022/09/08 04:46:32;;;;;;;55.30;36.92;;;17.00;99.90;;;;;;3058902;19;20014;-78
2022/09/08 04:47:33;;;;;;;52.60;36.42;;;17.00;99.90;;;;;;3059001;19;20375;-78
2022/09/08 04:48:39;;;;;;;53.78;35.10;;;17.00;99.90;;;;;;3059191;19;20054;-78
2022/09/08 04:49:40;;;;;;;51.40;35.63;;;17.00;99.90;;;;;;3060038;19;20022;-78
2022/09/08 04:50:44;;;;;;;54.33;36.60;;;16.90;99.90;;;;;;3060413;19;20014;-78
2022/09/08 04:51:46;;;;;;;53.20;36.90;;;17.00;99.90;;;;;;3059415;19;20014;-78
2022/09/08 04:52:52;;;;;;;53.53;35.97;;;17.10;99.90;;;;;;3059224;19;20010;-78
2022/09/08 04:53:55;;;;;;;59.53;37.08;;;17.00;99.90;;;;;;3060213;19;20013;-78
2022/09/08 04:54:59;;;;;;;51.58;36.50;;;17.10;99.90;;;;;;3059259;19;20158;-78
2022/09/08 04:56:01;;;;;;;51.90;36.10;;;17.10;99.90;;;;;;3059745;19;20352;-78
2022/09/08 04:57:05;;;;;;;54.47;36.45;;;17.10;99.90;;;;;;3058833;19;20020;-77
2022/09/08 04:58:06;;;;;;;54.83;36.80;;;17.00;99.90;;;;;;3059968;19;20014;-77
2022/09/08 04:59:10;;;;;;;55.10;37.15;;;17.00;99.90;;;;;;3059491;19;20089;-78
2022/09/08 05:00:13;;;;;;;54.30;36.72;;;17.00;99.90;;;;;;3056694;19;20353;-78
2022/09/08 05:01:19;;;;;;;55.75;36.97;;;16.90;99.90;;;;;;3058600;19;20019;-78
2022/09/08 05:02:22;;;;;;;59.38;37.72;;;17.10;99.90;;;;;;3058869;19;20014;-79
2022/09/08 05:03:24;;;;;;;57.35;37.53;;;16.90;99.90;;;;;;3058630;19;20474;-79
2022/09/08 05:04:28;;;;;;;53.22;35.72;;;17.00;99.90;;;;;;3058450;19;20086;-77
2022/09/08 05:05:29;;;;;;;54.33;35.15;;;16.90;99.90;;;;;;3058177;19;20028;-78
2022/09/08 05:06:35;;;;;;;57.95;37.97;;;17.00;99.90;;;;;;3059177;19;20364;-77
2022/09/08 05:07:36;;;;;;;57.90;37.40;;;17.00;99.90;;;;;;3059008;19;20015;-78
2022/09/08 05:08:44;;;;;;;58.30;38.22;;;17.00;99.90;;;;;;3059471;19;20014;-78
2022/09/08 05:09:46;;;;;;;57.92;37.70;;;16.80;99.90;;;;;;3059421;19;20035;-78
2022/09/08 05:10:50;;;;;;;;;;;16.70;99.90;;;;;;3060266;19;20022;-78
2022/09/08 05:11:53;;;;;;;53.40;36.20;;;17.00;99.90;;;;;;3058935;19;19971;-78
2022/09/08 05:12:55;;;;;;;52.80;34.95;;;17.00;99.90;;;;;;3059017;19;20014;-77
2022/09/08 05:13:59;;;;;;;59.40;37.97;;;16.90;99.90;;;;;;3058166;19;20034;-78
2022/09/08 05:15:00;;;;;;;54.33;36.58;;;16.80;99.90;;;;;;3060014;19;20028;-78
2022/09/08 05:16:05;;;;;;;56.63;36.30;;;17.00;99.90;;;;;;3059497;19;20086;-78
2022/09/08 05:17:09;;;;;;;57.22;38.35;;;16.80;99.90;;;;;;3057648;19;20424;-78
2022/09/08 05:18:11;;;;;;;53.05;36.05;;;16.70;99.90;;;;;;3058215;19;20006;-77
2022/09/08 05:19:15;;;;;;;;;;;16.70;99.90;;;;;;3059190;19;20080;-78
2022/09/08 05:20:17;;;;;;;53.88;36.30;;;16.80;99.90;;;;;;3059951;19;19919;-77
2022/09/08 05:21:22;;;;;;;56.50;35.35;;;17.00;99.90;;;;;;3057939;19;20026;-78
2022/09/08 05:22:26;;;;;;;54.13;36.15;;;16.80;99.90;;;;;;3057739;19;20021;-78
2022/09/08 05:23:27;;;;;;;56.42;38.78;;;16.90;99.90;;;;;;3059941;19;20018;-77
2022/09/08 05:24:33;;;;;;;56.00;38.05;;;16.90;99.90;;;;;;3058810;19;20543;-78
2022/09/08 05:25:35;;;;;;;54.60;37.13;;;16.80;99.90;;;;;;3058443;19;20010;-78
2022/09/08 05:26:39;;;;;;;57.58;37.38;;;16.90;99.90;;;;;;3058159;19;20014;-78
2022/09/08 05:27:40;;;;;;;55.35;36.90;;;16.80;99.90;;;;;;3058512;19;20019;-78
2022/09/08 05:28:45;;;;;;;56.38;37.70;;;16.80;99.90;;;;;;3059440;19;20094;-78
2022/09/08 05:29:47;;;;;;;57.55;38.67;;;17.00;99.90;;;;;;3058468;19;20003;-78
2022/09/08 05:30:51;;;;;;;54.30;37.20;;;16.90;99.90;;;;;;3058251;19;20017;-78
2022/09/08 05:31:54;;;;;;;56.22;37.72;;;17.10;99.90;;;;;;3059557;19;20010;-78
2022/09/08 05:32:56;;;;;;;61.25;38.97;;;17.00;99.90;;;;;;3058067;19;20082;-78
2022/09/08 05:34:01;;;;;;;63.13;37.20;;;17.00;99.90;;;;;;3058251;19;20006;-78
2022/09/08 05:35:03;;;;;;;54.65;37.63;;;17.10;99.90;;;;;;3057892;19;20437;-77
2022/09/08 05:36:12;;;;;;;55.85;37.17;;;17.00;99.90;;;;;;3058611;19;20024;-78
2022/09/08 05:37:13;;;;;;;55.83;38.60;;;16.90;99.90;;;;;;3057562;19;20023;-78
2022/09/08 05:38:17;;;;;;;54.75;37.55;;;17.10;99.90;;;;;;3058101;19;20050;-78
2022/09/08 05:39:21;;;;;;;55.42;37.28;;;17.10;99.90;;;;;;3057980;19;20017;-78
2022/09/08 05:40:25;;;;;;;58.88;38.00;;;17.00;99.90;;;;;;3059645;19;20022;-78
2022/09/08 05:41:29;;;;;;;61.33;39.22;;;16.80;99.90;;;;;;3057916;19;20014;-78
2022/09/08 05:42:30;;;;;;;55.13;36.53;;;16.90;99.90;;;;;;3058510;19;19995;-78